createdAt,value
2022-08-05T00:00:22.885Z,37.34
2022-08-05T00:02:51.345Z,38.16
2022-08-05T00:06:03.178Z,38.01
2022-08-05T00:08:19.719Z,38.82
2022-08-05T00:10:53.757Z,38.80
2022-08-05T00:13:20.672Z,38.96
2022-08-05T00:16:06.233Z,39.53
2022-08-05T00:18:36.602Z,38.99
2022-08-05T00:21:06.759Z,39.49
2022-08-05T00:23:45.731Z,38.87
2022-08-05T00:26:16.365Z,39.11
2022-08-05T00:28:45.716Z,38.86
2022-08-05T00:31:13.880Z,38.98
2022-08-05T00:34:54.485Z,38.81
2022-08-05T00:37:12.028Z,39.09
2022-08-05T00:39:15.262Z,38.66
2022-08-05T00:41:51.689Z,38.70
2022-08-05T00:44:21.755Z,38.45
2022-08-05T00:46:54.118Z,39.08
2022-08-05T00:49:32.448Z,40.67
2022-08-05T00:52:01.512Z,40.66
2022-08-05T00:54:30.172Z,41.19
2022-08-05T00:56:57.434Z,39.37
2022-08-05T00:59:24.554Z,39.59
2022-08-05T01:01:51.666Z,40.14
2022-08-05T01:04:19.887Z,40.16
2022-08-05T01:06:51.699Z,41.70
2022-08-05T01:09:19.971Z,41.23
2022-08-05T01:11:50.431Z,41.08
2022-08-05T01:14:40.792Z,41.55
2022-08-05T01:17:44.054Z,40.60
2022-08-05T01:20:37.321Z,43.60
2022-08-05T01:23:23.786Z,43.87
2022-08-05T01:26:33.275Z,43.33
2022-08-05T01:29:16.993Z,44.26
2022-08-05T01:31:59.317Z,42.47
2022-08-05T01:34:31.113Z,43.60
2022-08-05T01:37:25.108Z,44.89
2022-08-05T01:39:59.232Z,43.93
2022-08-05T01:42:28.116Z,42.43
2022-08-05T01:45:02.254Z,41.78
2022-08-05T01:47:39.462Z,43.45
2022-08-05T01:50:15.246Z,44.44
2022-08-05T01:52:50.087Z,44.40
2022-08-05T01:55:20.833Z,42.82
2022-08-05T01:58:13.860Z,41.84
2022-08-05T02:00:41.945Z,41.25
2022-08-05T02:03:34.105Z,41.48
2022-08-05T02:06:03.394Z,41.62
2022-08-05T02:08:40.985Z,41.04
2022-08-05T02:11:24.040Z,40.88
2022-08-05T02:14:12.309Z,40.99
2022-08-05T02:16:53.159Z,41.19
2022-08-05T02:19:47.439Z,40.81
2022-08-05T02:22:27.449Z,40.76
2022-08-05T02:25:05.430Z,41.38
2022-08-05T02:27:59.204Z,41.46
2022-08-05T02:30:27.107Z,41.14
2022-08-05T02:32:56.505Z,41.09
2022-08-05T02:35:37.407Z,41.89
2022-08-05T02:38:09.442Z,41.65
2022-08-05T02:40:37.767Z,41.70
2022-08-05T02:43:07.434Z,41.80
2022-08-05T02:45:52.452Z,41.57
2022-08-05T02:48:29.030Z,41.79
2022-08-05T02:51:00.226Z,41.65
2022-08-05T02:53:39.212Z,41.63
2022-08-05T02:56:08.949Z,41.54
2022-08-05T02:58:43.799Z,41.79
2022-08-05T03:01:17.668Z,43.27
2022-08-05T03:04:02.666Z,44.40
2022-08-05T03:06:55.755Z,48.06
2022-08-05T03:09:27.208Z,48.92
2022-08-05T03:12:05.440Z,45.50
2022-08-05T03:14:32.441Z,45.37
2022-08-05T03:16:59.752Z,45.05
2022-08-05T03:19:33.834Z,44.60
2022-08-05T03:22:01.869Z,44.59
2022-08-05T03:24:32.243Z,46.53
2022-08-05T03:27:01.079Z,46.19
2022-08-05T03:29:45.107Z,45.71
2022-08-05T03:32:16.031Z,45.31
2022-08-05T03:34:51.092Z,46.80
2022-08-05T03:37:21.295Z,45.21
2022-08-05T03:39:59.015Z,44.90
2022-08-05T03:42:27.001Z,45.04
2022-08-05T03:44:55.792Z,44.12
2022-08-05T03:47:24.478Z,44.60
2022-08-05T03:49:52.427Z,44.11
2022-08-05T03:52:48.929Z,44.32
2022-08-05T03:56:09.454Z,43.92
2022-08-05T03:58:18.196Z,44.48
2022-08-05T04:00:57.730Z,43.92
2022-08-05T04:03:30.073Z,44.64
2022-08-05T04:05:59.067Z,44.42
2022-08-05T04:08:36.028Z,44.54
2022-08-05T04:11:08.734Z,44.97
2022-08-05T04:13:50.930Z,44.95
2022-08-05T04:16:24.150Z,45.41
2022-08-05T04:18:54.241Z,45.32
2022-08-05T04:22:08.894Z,44.20
2022-08-05T04:24:19.723Z,43.75
2022-08-05T04:26:51.038Z,44.35
2022-08-05T04:29:18.262Z,44.19
2022-08-05T04:31:48.525Z,44.76
2022-08-05T04:34:19.634Z,44.63
2022-08-05T04:37:00.678Z,44.43
2022-08-05T04:39:28.058Z,44.43
2022-08-05T04:41:55.324Z,44.88
2022-08-05T04:44:30.282Z,43.85
2022-08-05T04:47:08.866Z,44.88
2022-08-05T04:50:01.029Z,44.62
2022-08-05T04:52:24.486Z,44.68
2022-08-05T04:54:57.440Z,44.57
2022-08-05T04:57:28.805Z,44.32
2022-08-05T04:59:57.111Z,43.96
2022-08-05T05:02:37.369Z,43.71
2022-08-05T05:05:26.196Z,45.31
2022-08-05T05:08:01.510Z,45.31
2022-08-05T05:10:30.997Z,45.93
2022-08-05T05:13:04.302Z,46.85
2022-08-05T05:15:57.664Z,47.29
2022-08-05T05:18:31.516Z,45.67
2022-08-05T05:21:02.086Z,46.35
2022-08-05T05:24:02.088Z,46.14
2022-08-05T05:26:17.165Z,45.49
2022-08-05T05:28:44.863Z,44.48
2022-08-05T05:31:12.481Z,44.74
2022-08-05T05:33:58.699Z,43.92
2022-08-05T05:36:28.512Z,43.87
2022-08-05T05:38:57.408Z,45.13
2022-08-05T05:41:24.846Z,44.27
2022-08-05T05:43:57.637Z,43.99
2022-08-05T05:46:27.194Z,43.97
2022-08-05T05:48:54.115Z,43.47
2022-08-05T05:51:22.774Z,43.76
2022-08-05T05:53:57.600Z,43.48
2022-08-05T05:56:34.484Z,43.64
2022-08-05T05:59:07.452Z,44.28
2022-08-05T06:01:40.032Z,44.71
2022-08-05T06:04:11.550Z,44.83
2022-08-05T06:06:47.318Z,44.74
2022-08-05T06:09:25.428Z,44.02
2022-08-05T06:11:59.208Z,46.20
2022-08-05T06:14:28.037Z,44.95
2022-08-05T06:16:56.839Z,45.17
2022-08-05T06:19:33.954Z,44.50
2022-08-05T06:22:07.519Z,43.21
2022-08-05T06:25:01.129Z,43.12
2022-08-05T06:28:24.332Z,42.09
2022-08-05T06:30:58.686Z,41.63
2022-08-05T06:33:33.327Z,42.18
2022-08-05T06:36:19.469Z,42.01
2022-08-05T06:38:55.014Z,41.72
2022-08-05T06:41:23.756Z,41.18
2022-08-05T06:44:00.407Z,40.14
2022-08-05T06:46:29.932Z,39.66
2022-08-05T06:48:59.224Z,40.67
2022-08-05T06:51:30.072Z,39.03
2022-08-05T06:54:02.280Z,38.01
2022-08-05T06:56:35.044Z,38.01
2022-08-05T06:59:11.953Z,39.67
2022-08-05T07:01:40.795Z,40.49
2022-08-05T07:04:09.715Z,40.39
2022-08-05T07:06:37.354Z,39.14
2022-08-05T07:09:04.933Z,39.71
2022-08-05T07:11:37.363Z,37.79
2022-08-05T07:14:30.526Z,38.64
2022-08-05T07:17:59.253Z,39.47
2022-08-05T07:22:42.177Z,39.10
2022-08-05T07:25:53.919Z,37.35
2022-08-05T07:28:03.767Z,36.02
2022-08-05T07:30:38.762Z,35.57
2022-08-05T07:33:16.113Z,36.67
2022-08-05T07:36:01.554Z,37.44
2022-08-05T07:38:34.149Z,35.58
2022-08-05T07:42:09.441Z,37.23
2022-08-05T07:43:57.009Z,36.05
2022-08-05T07:46:33.901Z,35.50
2022-08-05T07:49:05.883Z,37.89
2022-08-05T07:51:53.976Z,36.58
2022-08-05T07:54:47.613Z,37.89
2022-08-05T07:57:52.247Z,38.81
2022-08-05T08:00:06.668Z,39.71
2022-08-05T08:03:15.124Z,41.04
2022-08-05T08:05:30.822Z,41.72
2022-08-05T08:08:06.665Z,41.41
2022-08-05T08:10:48.717Z,41.07
2022-08-05T08:13:22.137Z,41.51
2022-08-05T08:16:49.693Z,41.27
2022-08-05T08:18:43.674Z,40.23
2022-08-05T08:21:19.207Z,41.78
2022-08-05T08:24:02.806Z,41.19
2022-08-05T08:26:32.407Z,39.82
2022-08-05T08:29:22.229Z,40.83
2022-08-05T08:31:48.292Z,41.17
2022-08-05T08:34:15.869Z,40.90
2022-08-05T08:36:50.554Z,39.67
2022-08-05T08:39:23.689Z,38.32
2022-08-05T08:42:00.191Z,37.92
2022-08-05T08:45:22.151Z,38.35
2022-08-05T08:48:06.694Z,38.95
2022-08-05T08:50:31.981Z,38.58
2022-08-05T08:53:08.206Z,38.13
2022-08-05T08:56:04.929Z,38.57
2022-08-05T08:58:37.547Z,40.97
2022-08-05T09:01:16.431Z,40.57
2022-08-05T09:03:54.586Z,38.30
2022-08-05T09:06:29.565Z,39.83
2022-08-05T09:08:59.955Z,38.00
2022-08-05T09:11:51.612Z,36.91
2022-08-05T09:14:56.692Z,36.84
2022-08-05T09:17:43.088Z,36.19
2022-08-05T09:20:05.319Z,36.16
2022-08-05T09:23:19.518Z,36.88
2022-08-05T09:26:01.754Z,37.12
2022-08-05T09:28:32.350Z,37.21
2022-08-05T09:31:22.199Z,36.70
2022-08-05T09:34:14.190Z,35.29
2022-08-05T09:37:05.363Z,34.16
2022-08-05T09:39:50.510Z,35.90
2022-08-05T09:42:28.410Z,35.12
2022-08-05T09:45:03.339Z,34.55
2022-08-05T09:47:54.949Z,35.05
2022-08-05T09:50:38.679Z,32.26
2022-08-05T09:53:17.150Z,33.54
2022-08-05T09:56:03.703Z,33.39
2022-08-05T09:58:31.037Z,31.37
2022-08-05T10:01:01.078Z,32.40
2022-08-05T10:03:56.826Z,30.61
2022-08-05T10:06:20.115Z,28.25
2022-08-05T10:08:53.778Z,29.06
2022-08-05T10:11:21.272Z,29.85
2022-08-05T10:13:54.743Z,28.72
2022-08-05T10:16:41.817Z,26.62
2022-08-05T10:19:23.730Z,25.85
2022-08-05T10:21:59.555Z,27.93
2022-08-05T10:24:39.765Z,27.16
2022-08-05T10:27:11.774Z,26.14
2022-08-05T10:30:06.693Z,26.03
2022-08-05T10:32:53.682Z,24.53
2022-08-05T10:35:14.103Z,24.05
2022-08-05T10:37:44.738Z,24.31
2022-08-05T10:40:57.978Z,25.13
2022-08-05T10:43:50.827Z,25.45
2022-08-05T10:46:23.867Z,24.91
2022-08-05T10:49:06.424Z,26.52
2022-08-05T10:52:02.355Z,26.29
2022-08-05T10:55:10.330Z,26.93
2022-08-05T10:57:44.843Z,26.91
2022-08-05T11:00:32.710Z,25.46
2022-08-05T11:03:25.402Z,26.22
2022-08-05T11:06:15.473Z,26.91
2022-08-05T11:09:16.673Z,26.69
2022-08-05T11:18:09.821Z,25.02
2022-08-05T11:20:32.879Z,25.53
2022-08-05T11:23:08.865Z,26.00
2022-08-05T11:26:05.697Z,24.85
2022-08-05T11:29:11.860Z,25.08
2022-08-05T11:32:27.047Z,26.06
2022-08-05T11:34:55.623Z,25.37
2022-08-05T11:38:29.336Z,24.76
2022-08-05T11:41:54.463Z,26.03
2022-08-05T11:44:40.201Z,26.10
2022-08-05T11:47:11.694Z,28.01
2022-08-05T11:50:07.627Z,26.92
2022-08-05T11:52:44.126Z,26.83
2022-08-05T11:55:15.151Z,26.92
2022-08-05T11:58:09.999Z,27.65
2022-08-05T12:00:38.437Z,29.58
2022-08-05T12:03:23.906Z,29.17
2022-08-05T12:06:06.620Z,30.31
2022-08-05T12:09:20.069Z,32.29
2022-08-05T12:11:47.630Z,30.85
2022-08-05T12:14:14.949Z,33.01
2022-08-05T12:16:46.400Z,30.66
2022-08-05T12:22:20.089Z,31.19
2022-08-05T12:24:53.028Z,31.67
2022-08-05T12:27:26.392Z,29.99
2022-08-05T12:30:08.066Z,28.91
2022-08-05T12:32:44.085Z,30.79
2022-08-05T12:35:21.673Z,29.17
2022-08-05T12:37:49.641Z,31.05
2022-08-05T12:40:28.675Z,31.40
2022-08-05T12:43:00.108Z,32.29
2022-08-05T12:45:42.395Z,32.23
2022-08-05T12:48:32.285Z,28.79
2022-08-05T12:52:10.415Z,30.83
2022-08-05T12:54:16.910Z,31.84
2022-08-05T12:57:09.194Z,29.88
2022-08-05T13:01:56.788Z,31.91
2022-08-05T13:02:36.517Z,33.80
2022-08-05T13:05:07.249Z,34.81
2022-08-05T13:07:59.558Z,35.06
2022-08-05T13:10:27.033Z,34.49
2022-08-05T13:12:58.422Z,36.15
2022-08-05T13:15:49.183Z,36.88
2022-08-05T13:18:24.347Z,33.67
2022-08-05T13:20:51.266Z,32.18
2022-08-05T13:23:22.292Z,32.23
2022-08-05T13:25:59.386Z,31.87
2022-08-05T13:28:28.755Z,34.44
2022-08-05T13:30:57.111Z,33.00
2022-08-05T13:34:22.357Z,32.13
2022-08-05T13:36:15.346Z,30.33
2022-08-05T13:38:43.225Z,31.76
2022-08-05T13:41:16.809Z,32.12
2022-08-05T13:43:54.782Z,28.15
2022-08-05T13:46:44.285Z,30.09
2022-08-05T13:49:35.259Z,30.25
2022-08-05T13:52:29.090Z,29.60
2022-08-05T13:54:59.477Z,31.16
2022-08-05T14:01:00.113Z,31.54
2022-08-05T14:06:32.118Z,27.61
2022-08-05T14:09:35.016Z,29.12
2022-08-05T14:12:39.302Z,26.02
2022-08-05T14:18:15.053Z,28.11
2022-08-05T14:20:55.105Z,27.95
2022-08-05T14:23:57.223Z,26.73
2022-08-05T14:26:43.771Z,26.02
2022-08-05T14:29:39.876Z,25.71
2022-08-05T14:32:33.015Z,26.17
2022-08-05T14:35:07.290Z,28.48
2022-08-05T14:37:44.765Z,27.96
2022-08-05T14:40:18.755Z,26.03
2022-08-05T14:42:58.973Z,25.12
2022-08-05T14:45:51.299Z,27.29
2022-08-05T14:48:33.580Z,27.33
2022-08-05T14:51:16.156Z,26.74
2022-08-05T14:54:25.905Z,26.79
2022-08-05T14:56:59.593Z,26.50
2022-08-05T14:59:35.719Z,26.02
2022-08-05T15:02:15.012Z,27.51
2022-08-05T15:04:55.555Z,29.04
2022-08-05T15:08:06.214Z,29.00
2022-08-05T15:10:10.402Z,27.77
2022-08-05T15:12:58.001Z,29.08
2022-08-05T15:15:53.809Z,28.41
2022-08-05T15:18:15.101Z,27.03
2022-08-05T15:20:44.597Z,30.52
2022-08-05T15:23:13.426Z,31.66
2022-08-05T15:25:53.807Z,33.24
2022-08-05T15:28:27.707Z,33.54
2022-08-05T15:30:55.758Z,37.55
2022-08-05T15:34:18.907Z,36.62
2022-08-05T15:36:17.537Z,36.22
2022-08-05T15:40:40.908Z,35.95
2022-08-05T15:41:55.616Z,36.23
2022-08-05T15:44:24.379Z,35.76
2022-08-05T15:46:52.738Z,37.69
2022-08-05T15:49:39.900Z,39.77
2022-08-05T15:52:16.537Z,42.08
2022-08-05T15:55:16.177Z,43.99
2022-08-05T15:57:49.732Z,39.89
2022-08-05T16:00:26.322Z,43.41
2022-08-05T16:03:08.531Z,44.18
2022-08-05T16:05:41.714Z,40.23
2022-08-05T16:08:16.103Z,38.31
2022-08-05T16:10:48.169Z,36.57
2022-08-05T16:13:23.274Z,36.83
2022-08-05T16:15:52.085Z,36.03
2022-08-05T16:18:19.716Z,35.32
2022-08-05T16:21:17.553Z,37.79
2022-08-05T16:27:17.473Z,36.61
2022-08-05T16:30:08.059Z,35.24
2022-08-05T16:32:56.188Z,35.63
2022-08-05T16:36:04.403Z,35.84
2022-08-05T16:38:57.532Z,36.34
2022-08-05T16:42:27.974Z,35.53
2022-08-05T16:46:05.335Z,37.53
2022-08-05T16:48:25.128Z,37.61
2022-08-05T16:51:31.090Z,37.50
2022-08-05T16:54:17.416Z,37.10
2022-08-05T16:56:54.678Z,36.56
2022-08-05T17:02:45.727Z,37.06
2022-08-05T17:05:59.424Z,37.54
2022-08-05T17:08:54.439Z,38.29
2022-08-05T17:11:48.255Z,38.24
2022-08-05T17:14:38.704Z,38.26
2022-08-05T17:17:17.706Z,39.02
2022-08-05T17:20:18.125Z,39.13
2022-08-05T17:24:03.099Z,39.53
2022-08-05T17:26:08.862Z,39.81
2022-08-05T17:29:17.506Z,39.27
2022-08-05T17:32:26.141Z,39.32
2022-08-05T17:35:15.544Z,39.77
2022-08-05T17:38:11.951Z,40.04
2022-08-05T17:43:53.115Z,40.34
2022-08-05T17:46:54.710Z,40.38
2022-08-05T17:49:27.739Z,41.00
2022-08-05T17:52:53.109Z,42.01
2022-08-05T17:55:55.362Z,43.12
2022-08-05T17:58:45.696Z,42.49
2022-08-05T18:01:16.478Z,41.94
2022-08-05T18:03:59.104Z,42.70
2022-08-05T18:09:59.631Z,42.43
2022-08-05T18:12:56.793Z,42.20
2022-08-05T18:16:01.094Z,42.87
2022-08-05T18:19:09.446Z,42.65
2022-08-05T18:22:09.297Z,42.58
2022-08-05T18:24:57.333Z,42.80
2022-08-05T18:27:25.309Z,42.92
2022-08-05T18:29:56.508Z,43.31
2022-08-05T18:32:53.093Z,43.18
2022-08-05T18:35:49.576Z,42.93
2022-08-05T18:38:26.010Z,42.60
2022-08-05T18:41:58.535Z,42.58
2022-08-05T18:44:07.830Z,43.41
2022-08-05T18:47:08.288Z,42.84
2022-08-05T18:50:00.607Z,42.80
2022-08-05T18:52:50.898Z,43.35
2022-08-05T18:55:22.503Z,43.12
2022-08-05T18:58:32.378Z,43.30
2022-08-05T19:01:33.146Z,43.27
2022-08-05T19:04:03.123Z,43.37
2022-08-05T19:06:50.363Z,43.29
2022-08-05T19:09:40.026Z,43.70
2022-08-05T19:12:08.117Z,43.06
2022-08-05T19:15:02.406Z,43.89
2022-08-05T19:18:08.411Z,42.86
2022-08-05T19:20:33.656Z,42.20
2022-08-05T19:23:08.012Z,43.29
2022-08-05T19:25:43.526Z,43.12
2022-08-05T19:28:11.880Z,43.62
2022-08-05T19:30:48.940Z,43.21
2022-08-05T19:33:37.201Z,44.15
2022-08-05T19:36:10.990Z,43.67
2022-08-05T19:38:58.846Z,44.08
2022-08-05T19:42:16.287Z,43.40
2022-08-05T19:45:14.459Z,44.20
2022-08-05T19:47:44.644Z,43.53
2022-08-05T19:50:20.160Z,43.23
2022-08-05T19:52:52.468Z,42.97
2022-08-05T19:56:15.163Z,43.53
2022-08-05T19:58:28.579Z,43.82
2022-08-05T20:00:59.778Z,42.99
2022-08-05T20:03:38.852Z,43.27
2022-08-05T20:06:11.700Z,43.06
2022-08-05T20:09:14.049Z,42.90
2022-08-05T20:15:52.465Z,43.13
2022-08-05T20:18:43.346Z,42.94
2022-08-05T20:21:16.765Z,42.20
2022-08-05T20:23:56.825Z,41.94
2022-08-05T20:26:27.479Z,41.69
2022-08-05T20:29:01.533Z,42.21
2022-08-05T20:31:50.448Z,42.58
2022-08-05T20:34:30.324Z,42.56
2022-08-05T20:37:24.082Z,43.04
2022-08-05T20:40:21.796Z,43.26
2022-08-05T20:43:13.156Z,43.86
2022-08-05T20:46:24.956Z,43.71
2022-08-05T20:48:58.924Z,43.49
2022-08-05T20:51:32.041Z,43.32
2022-08-05T20:54:14.617Z,43.07
2022-08-05T20:56:52.153Z,42.77
2022-08-05T21:00:21.038Z,42.99
2022-08-05T21:03:01.294Z,42.58
2022-08-05T21:05:55.621Z,42.78
2022-08-05T21:08:46.101Z,42.91
2022-08-05T21:12:10.624Z,43.37
2022-08-05T21:14:27.182Z,43.80
2022-08-05T21:16:58.248Z,43.62
2022-08-05T21:19:25.729Z,42.93
2022-08-05T21:25:16.059Z,43.73
2022-08-05T21:28:18.818Z,45.67
2022-08-05T21:31:10.491Z,44.63
2022-08-05T21:36:29.965Z,43.74
2022-08-05T21:39:00.154Z,43.81
2022-08-05T21:41:52.710Z,43.38
2022-08-05T21:44:46.996Z,43.76
2022-08-05T21:47:54.942Z,43.48
2022-08-05T21:50:38.672Z,43.46
2022-08-05T21:53:20.063Z,42.54
2022-08-05T21:56:05.395Z,43.05
2022-08-05T21:58:48.273Z,41.95
2022-08-05T22:01:58.842Z,43.33
2022-08-05T22:04:42.413Z,42.75
2022-08-05T22:07:39.740Z,42.85
2022-08-05T22:10:36.951Z,42.52
2022-08-05T22:14:31.559Z,43.10
2022-08-05T22:16:41.770Z,44.25
2022-08-05T22:19:57.377Z,42.52
2022-08-05T22:22:31.843Z,43.81
2022-08-05T22:26:11.344Z,43.29
2022-08-05T22:28:48.957Z,43.31
2022-08-05T22:31:22.917Z,43.67
2022-08-05T22:34:25.412Z,43.53
2022-08-05T22:37:08.507Z,43.23
2022-08-05T22:40:16.533Z,43.17
2022-08-05T22:43:16.585Z,43.23
2022-08-05T22:46:13.510Z,43.35
2022-08-05T22:48:56.433Z,44.61
2022-08-05T22:52:02.629Z,43.70
2022-08-05T22:54:27.771Z,43.64
2022-08-05T22:57:15.275Z,43.14
2022-08-05T22:59:51.904Z,42.87
2022-08-05T23:02:48.967Z,43.15
2022-08-05T23:05:52.000Z,43.18
2022-08-05T23:08:45.021Z,43.35
2022-08-05T23:11:49.293Z,43.32
2022-08-05T23:14:31.801Z,43.38
2022-08-05T23:17:24.187Z,42.90
2022-08-05T23:23:19.178Z,43.74
2022-08-05T23:25:52.395Z,43.26
2022-08-05T23:28:28.762Z,43.48
2022-08-05T23:31:16.339Z,43.65
2022-08-05T23:34:05.254Z,42.78
2022-08-05T23:36:59.477Z,44.11
2022-08-05T23:39:53.629Z,45.79
2022-08-05T23:42:31.266Z,44.78
2022-08-05T23:45:20.011Z,45.96
2022-08-05T23:48:19.813Z,46.10
2022-08-05T23:51:01.421Z,44.60
2022-08-05T23:53:46.528Z,46.11
2022-08-05T23:56:36.872Z,44.96
2022-08-05T23:59:19.510Z,45.34
